sensor_id;sensor_type;location;lat;lon;timestamp;pressure;altitude;pressure_sealevel;temperature;humidity
63395;BME280;49531;-34.520;150.798;2024-02-26T00:01:19;100626.63;;;26.81;57.09
63395;BME280;49531;-34.520;150.798;2024-02-26T00:03:46;100650.28;;;26.91;56.86
63395;BME280;49531;-34.520;150.798;2024-02-26T00:06:13;100640.53;;;26.85;56.65
63395;BME280;49531;-34.520;150.798;2024-02-26T00:08:40;100656.25;;;26.93;56.53
63395;BME280;49531;-34.520;150.798;2024-02-26T00:11:07;100650.06;;;26.87;56.47
63395;BME280;49531;-34.520;150.798;2024-02-26T00:13:35;100641.84;;;26.87;56.39
63395;BME280;49531;-34.520;150.798;2024-02-26T00:16:06;100649.16;;;26.92;56.32
63395;BME280;49531;-34.520;150.798;2024-02-26T00:18:34;100621.63;;;26.83;56.07
63395;BME280;49531;-34.520;150.798;2024-02-26T00:21:01;100644.19;;;26.94;56.31
63395;BME280;49531;-34.520;150.798;2024-02-26T00:23:29;100663.28;;;26.99;56.20
63395;BME280;49531;-34.520;150.798;2024-02-26T00:25:56;100662.19;;;27.00;55.91
63395;BME280;49531;-34.520;150.798;2024-02-26T00:28:27;100659.44;;;27.00;55.96
63395;BME280;49531;-34.520;150.798;2024-02-26T00:30:55;100667.88;;;27.04;55.92
63395;BME280;49531;-34.520;150.798;2024-02-26T00:33:23;100675.88;;;27.00;55.70
63395;BME280;49531;-34.520;150.798;2024-02-26T00:35:50;100670.09;;;27.02;55.40
63395;BME280;49531;-34.520;150.798;2024-02-26T00:38:17;100668.78;;;26.99;55.75
63395;BME280;49531;-34.520;150.798;2024-02-26T00:40:44;100667.66;;;27.00;55.80
63395;BME280;49531;-34.520;150.798;2024-02-26T00:43:11;100668.16;;;27.02;55.27
63395;BME280;49531;-34.520;150.798;2024-02-26T00:45:39;100665.22;;;26.99;55.71
63395;BME280;49531;-34.520;150.798;2024-02-26T00:48:06;100670.59;;;27.04;55.00
63395;BME280;49531;-34.520;150.798;2024-02-26T00:50:34;100668.47;;;27.01;55.15
63395;BME280;49531;-34.520;150.798;2024-02-26T00:53:02;100673.03;;;27.05;55.07
63395;BME280;49531;-34.520;150.798;2024-02-26T00:55:29;100683.72;;;27.07;54.84
63395;BME280;49531;-34.520;150.798;2024-02-26T00:57:56;100666.53;;;27.01;54.62
63395;BME280;49531;-34.520;150.798;2024-02-26T01:00:23;100678.72;;;27.09;54.88
63395;BME280;49531;-34.520;150.798;2024-02-26T01:02:50;100672.84;;;27.02;55.03
63395;BME280;49531;-34.520;150.798;2024-02-26T01:05:17;100679.84;;;27.08;55.04
63395;BME280;49531;-34.520;150.798;2024-02-26T01:07:47;100687.78;;;27.09;54.81
63395;BME280;49531;-34.520;150.798;2024-02-26T01:10:40;100694.88;;;27.10;54.85
63395;BME280;49531;-34.520;150.798;2024-02-26T01:13:13;100661.56;;;27.03;54.89
63395;BME280;49531;-34.520;150.798;2024-02-26T01:15:40;100680.56;;;27.00;55.19
63395;BME280;49531;-34.520;150.798;2024-02-26T01:18:07;100690.00;;;27.07;54.95
63395;BME280;49531;-34.520;150.798;2024-02-26T01:20:34;100695.78;;;27.06;54.98
63395;BME280;49531;-34.520;150.798;2024-02-26T01:23:01;100681.78;;;27.07;55.01
63395;BME280;49531;-34.520;150.798;2024-02-26T01:25:29;100689.41;;;27.10;54.95
63395;BME280;49531;-34.520;150.798;2024-02-26T01:27:56;100676.81;;;27.09;55.18
63395;BME280;49531;-34.520;150.798;2024-02-26T01:30:23;100677.50;;;27.01;54.99
63395;BME280;49531;-34.520;150.798;2024-02-26T01:32:50;100670.19;;;27.10;54.94
63395;BME280;49531;-34.520;150.798;2024-02-26T01:35:17;100667.56;;;27.05;55.27
63395;BME280;49531;-34.520;150.798;2024-02-26T01:37:45;100673.44;;;27.12;54.98
63395;BME280;49531;-34.520;150.798;2024-02-26T01:40:13;100667.97;;;27.12;54.90
63395;BME280;49531;-34.520;150.798;2024-02-26T01:42:46;100674.25;;;27.13;54.89
63395;BME280;49531;-34.520;150.798;2024-02-26T01:45:15;100670.59;;;27.17;54.76
63395;BME280;49531;-34.520;150.798;2024-02-26T01:47:50;100656.38;;;27.15;54.71
63395;BME280;49531;-34.520;150.798;2024-02-26T01:50:18;100651.41;;;27.17;54.64
63395;BME280;49531;-34.520;150.798;2024-02-26T01:52:50;100659.31;;;27.19;54.53
63395;BME280;49531;-34.520;150.798;2024-02-26T01:55:20;100661.25;;;27.18;54.65
63395;BME280;49531;-34.520;150.798;2024-02-26T01:57:50;100660.09;;;27.19;54.46
63395;BME280;49531;-34.520;150.798;2024-02-26T02:00:19;100644.41;;;27.11;54.79
63395;BME280;49531;-34.520;150.798;2024-02-26T02:02:48;100661.72;;;27.20;54.44
63395;BME280;49531;-34.520;150.798;2024-02-26T02:05:16;100659.69;;;27.26;53.97
63395;BME280;49531;-34.520;150.798;2024-02-26T02:07:46;100660.19;;;27.28;54.14
63395;BME280;49531;-34.520;150.798;2024-02-26T02:10:15;100668.94;;;27.30;54.11
63395;BME280;49531;-34.520;150.798;2024-02-26T02:12:44;100653.19;;;27.22;54.31
63395;BME280;49531;-34.520;150.798;2024-02-26T02:15:11;100661.13;;;27.23;54.61
63395;BME280;49531;-34.520;150.798;2024-02-26T02:17:38;100657.47;;;27.28;54.59
63395;BME280;49531;-34.520;150.798;2024-02-26T02:20:09;100660.19;;;27.28;54.69
63395;BME280;49531;-34.520;150.798;2024-02-26T02:22:36;100653.41;;;27.26;54.72
63395;BME280;49531;-34.520;150.798;2024-02-26T02:25:05;100666.69;;;27.32;54.51
63395;BME280;49531;-34.520;150.798;2024-02-26T02:27:32;100663.66;;;27.34;54.69
63395;BME280;49531;-34.520;150.798;2024-02-26T02:29:59;100658.16;;;27.34;54.77
63395;BME280;49531;-34.520;150.798;2024-02-26T02:32:27;100663.97;;;27.32;54.86
63395;BME280;49531;-34.520;150.798;2024-02-26T02:34:54;100652.06;;;27.37;54.77
63395;BME280;49531;-34.520;150.798;2024-02-26T02:37:22;100650.44;;;27.36;54.74
63395;BME280;49531;-34.520;150.798;2024-02-26T02:39:49;100653.69;;;27.38;54.77
63395;BME280;49531;-34.520;150.798;2024-02-26T02:42:16;100649.31;;;27.37;54.78
63395;BME280;49531;-34.520;150.798;2024-02-26T02:44:43;100654.69;;;27.42;54.81
63395;BME280;49531;-34.520;150.798;2024-02-26T02:47:11;100637.22;;;27.38;54.95
63395;BME280;49531;-34.520;150.798;2024-02-26T02:49:38;100623.81;;;27.36;54.98
63395;BME280;49531;-34.520;150.798;2024-02-26T02:52:05;100633.44;;;27.47;54.96
63395;BME280;49531;-34.520;150.798;2024-02-26T02:54:32;100637.81;;;27.48;55.11
63395;BME280;49531;-34.520;150.798;2024-02-26T02:56:59;100629.09;;;27.46;55.05
63395;BME280;49531;-34.520;150.798;2024-02-26T02:59:27;100626.66;;;27.45;54.89
63395;BME280;49531;-34.520;150.798;2024-02-26T03:01:54;100631.53;;;27.48;54.97
63395;BME280;49531;-34.520;150.798;2024-02-26T03:04:21;100631.22;;;27.49;55.10
63395;BME280;49531;-34.520;150.798;2024-02-26T03:06:48;100649.00;;;27.52;55.00
63395;BME280;49531;-34.520;150.798;2024-02-26T03:09:15;100648.59;;;27.59;55.00
63395;BME280;49531;-34.520;150.798;2024-02-26T03:11:43;100649.25;;;27.64;55.11
63395;BME280;49531;-34.520;150.798;2024-02-26T03:14:10;100650.06;;;27.65;55.17
63395;BME280;49531;-34.520;150.798;2024-02-26T03:16:37;100638.78;;;27.66;54.78
63395;BME280;49531;-34.520;150.798;2024-02-26T03:19:04;100648.53;;;27.72;55.06
63395;BME280;49531;-34.520;150.798;2024-02-26T03:21:31;100636.03;;;27.66;55.22
63395;BME280;49531;-34.520;150.798;2024-02-26T03:23:58;100649.84;;;27.75;55.05
63395;BME280;49531;-34.520;150.798;2024-02-26T03:26:28;100641.72;;;27.70;55.10
63395;BME280;49531;-34.520;150.798;2024-02-26T03:28:57;100646.72;;;27.68;55.32
63395;BME280;49531;-34.520;150.798;2024-02-26T03:31:24;100656.56;;;27.69;55.38
63395;BME280;49531;-34.520;150.798;2024-02-26T03:33:51;100650.25;;;27.68;55.20
63395;BME280;49531;-34.520;150.798;2024-02-26T03:36:21;100640.78;;;27.74;55.30
63395;BME280;49531;-34.520;150.798;2024-02-26T03:38:49;100647.09;;;27.75;55.96
63395;BME280;49531;-34.520;150.798;2024-02-26T03:41:16;100645.53;;;27.82;56.19
63395;BME280;49531;-34.520;150.798;2024-02-26T03:43:43;100644.59;;;27.87;56.65
63395;BME280;49531;-34.520;150.798;2024-02-26T03:46:11;100652.53;;;27.88;56.77
63395;BME280;49531;-34.520;150.798;2024-02-26T03:48:42;100645.91;;;27.89;56.58
63395;BME280;49531;-34.520;150.798;2024-02-26T03:51:10;100652.72;;;27.92;56.54
63395;BME280;49531;-34.520;150.798;2024-02-26T03:53:37;100638.94;;;27.83;56.58
63395;BME280;49531;-34.520;150.798;2024-02-26T03:56:05;100649.28;;;27.86;56.18
63395;BME280;49531;-34.520;150.798;2024-02-26T03:58:33;100653.72;;;27.96;56.18
63395;BME280;49531;-34.520;150.798;2024-02-26T04:01:00;100657.13;;;28.02;56.33
63395;BME280;49531;-34.520;150.798;2024-02-26T04:03:28;100660.38;;;28.04;56.45
63395;BME280;49531;-34.520;150.798;2024-02-26T04:05:55;100661.38;;;28.08;56.59
63395;BME280;49531;-34.520;150.798;2024-02-26T04:08:22;100659.13;;;28.10;56.27
63395;BME280;49531;-34.520;150.798;2024-02-26T04:10:49;100665.44;;;28.10;56.23
63395;BME280;49531;-34.520;150.798;2024-02-26T04:13:17;100636.44;;;27.96;56.20
63395;BME280;49531;-34.520;150.798;2024-02-26T04:15:45;100663.50;;;28.11;56.30
63395;BME280;49531;-34.520;150.798;2024-02-26T04:18:13;100666.44;;;28.14;56.28
63395;BME280;49531;-34.520;150.798;2024-02-26T04:20:40;100665.00;;;28.17;55.89
63395;BME280;49531;-34.520;150.798;2024-02-26T04:23:08;100666.63;;;28.18;55.75
63395;BME280;49531;-34.520;150.798;2024-02-26T04:25:35;100667.41;;;28.18;55.72
63395;BME280;49531;-34.520;150.798;2024-02-26T04:28:02;100657.69;;;28.12;55.46
63395;BME280;49531;-34.520;150.798;2024-02-26T04:30:29;100661.38;;;28.08;54.99
63395;BME280;49531;-34.520;150.798;2024-02-26T04:32:57;100645.66;;;28.00;55.17
63395;BME280;49531;-34.520;150.798;2024-02-26T04:35:24;100656.81;;;28.03;54.71
63395;BME280;49531;-34.520;150.798;2024-02-26T04:37:51;100660.66;;;27.94;54.91
63395;BME280;49531;-34.520;150.798;2024-02-26T04:40:18;100659.25;;;27.82;55.02
63395;BME280;49531;-34.520;150.798;2024-02-26T04:42:45;100663.00;;;27.86;54.72
63395;BME280;49531;-34.520;150.798;2024-02-26T04:45:13;100660.38;;;27.81;54.68
63395;BME280;49531;-34.520;150.798;2024-02-26T04:47:40;100666.50;;;27.78;54.93
63395;BME280;49531;-34.520;150.798;2024-02-26T04:50:07;100681.47;;;27.72;54.97
63395;BME280;49531;-34.520;150.798;2024-02-26T04:52:34;100665.72;;;27.64;55.01
63395;BME280;49531;-34.520;150.798;2024-02-26T04:55:02;100670.09;;;27.65;55.27
63395;BME280;49531;-34.520;150.798;2024-02-26T04:57:30;100677.91;;;27.72;54.65
63395;BME280;49531;-34.520;150.798;2024-02-26T04:59:57;100679.94;;;27.66;54.55
63395;BME280;49531;-34.520;150.798;2024-02-26T05:02:24;100668.50;;;27.50;54.88
63395;BME280;49531;-34.520;150.798;2024-02-26T05:04:51;100683.22;;;27.54;55.17
63395;BME280;49531;-34.520;150.798;2024-02-26T05:07:18;100686.47;;;27.56;54.77
63395;BME280;49531;-34.520;150.798;2024-02-26T05:09:46;100685.78;;;27.51;55.28
63395;BME280;49531;-34.520;150.798;2024-02-26T05:12:16;100686.38;;;27.48;55.47
63395;BME280;49531;-34.520;150.798;2024-02-26T05:14:43;100677.03;;;27.49;55.32
63395;BME280;49531;-34.520;150.798;2024-02-26T05:17:10;100678.03;;;27.53;55.30
63395;BME280;49531;-34.520;150.798;2024-02-26T05:19:37;100680.06;;;27.61;54.90
63395;BME280;49531;-34.520;150.798;2024-02-26T05:22:04;100680.66;;;27.72;54.86
63395;BME280;49531;-34.520;150.798;2024-02-26T05:24:31;100685.00;;;27.73;54.88
63395;BME280;49531;-34.520;150.798;2024-02-26T05:27:00;100691.81;;;27.75;54.56
63395;BME280;49531;-34.520;150.798;2024-02-26T05:29:27;100679.44;;;27.64;54.74
63395;BME280;49531;-34.520;150.798;2024-02-26T05:31:54;100675.59;;;27.65;54.89
63395;BME280;49531;-34.520;150.798;2024-02-26T05:34:21;100691.63;;;27.72;54.83
63395;BME280;49531;-34.520;150.798;2024-02-26T05:36:48;100695.38;;;27.76;54.59
63395;BME280;49531;-34.520;150.798;2024-02-26T05:39:15;100693.25;;;27.73;54.71
63395;BME280;49531;-34.520;150.798;2024-02-26T05:41:42;100689.81;;;27.67;54.82
63395;BME280;49531;-34.520;150.798;2024-02-26T05:44:10;100694.19;;;27.68;54.61
63395;BME280;49531;-34.520;150.798;2024-02-26T05:46:38;100683.81;;;27.65;54.07
63395;BME280;49531;-34.520;150.798;2024-02-26T05:49:05;100705.66;;;27.70;54.44
63395;BME280;49531;-34.520;150.798;2024-02-26T05:51:33;100709.91;;;27.76;54.63
63395;BME280;49531;-34.520;150.798;2024-02-26T05:54:00;100718.53;;;27.83;54.16
63395;BME280;49531;-34.520;150.798;2024-02-26T05:56:27;100720.34;;;27.88;54.07
63395;BME280;49531;-34.520;150.798;2024-02-26T05:58:54;100713.56;;;27.85;54.11
63395;BME280;49531;-34.520;150.798;2024-02-26T06:01:22;100719.22;;;27.89;54.29
63395;BME280;49531;-34.520;150.798;2024-02-26T06:03:50;100709.25;;;27.93;54.06
63395;BME280;49531;-34.520;150.798;2024-02-26T06:06:17;100717.00;;;27.91;54.08
63395;BME280;49531;-34.520;150.798;2024-02-26T06:08:44;100709.19;;;27.84;53.31
63395;BME280;49531;-34.520;150.798;2024-02-26T06:11:11;100726.88;;;27.78;53.36
63395;BME280;49531;-34.520;150.798;2024-02-26T06:13:38;100717.47;;;27.57;53.72
63395;BME280;49531;-34.520;150.798;2024-02-26T06:16:07;100721.03;;;27.44;54.03
63395;BME280;49531;-34.520;150.798;2024-02-26T06:18:35;100724.00;;;27.34;54.20
63395;BME280;49531;-34.520;150.798;2024-02-26T06:21:02;100722.47;;;27.28;54.23
63395;BME280;49531;-34.520;150.798;2024-02-26T06:23:29;100725.53;;;27.26;54.26
63395;BME280;49531;-34.520;150.798;2024-02-26T06:25:56;100734.16;;;27.19;54.59
63395;BME280;49531;-34.520;150.798;2024-02-26T06:28:27;100734.78;;;27.16;54.51
63395;BME280;49531;-34.520;150.798;2024-02-26T06:30:56;100736.13;;;27.19;54.95
63395;BME280;49531;-34.520;150.798;2024-02-26T06:33:23;100735.69;;;27.26;54.38
63395;BME280;49531;-34.520;150.798;2024-02-26T06:35:50;100743.28;;;27.29;54.34
63395;BME280;49531;-34.520;150.798;2024-02-26T06:38:24;100745.75;;;27.30;54.52
63395;BME280;49531;-34.520;150.798;2024-02-26T07:00:54;100763.91;;;27.26;54.92
63395;BME280;49531;-34.520;150.798;2024-02-26T07:03:21;100771.13;;;27.22;54.85
63395;BME280;49531;-34.520;150.798;2024-02-26T07:05:52;100764.00;;;27.21;54.91
63395;BME280;49531;-34.520;150.798;2024-02-26T07:08:19;100755.63;;;27.17;54.85
63395;BME280;49531;-34.520;150.798;2024-02-26T07:10:47;100762.59;;;27.23;54.83
63395;BME280;49531;-34.520;150.798;2024-02-26T07:13:14;100777.44;;;27.22;54.74
63395;BME280;49531;-34.520;150.798;2024-02-26T07:15:41;100771.56;;;27.15;55.02
63395;BME280;49531;-34.520;150.798;2024-02-26T07:18:09;100775.94;;;27.16;55.05
63395;BME280;49531;-34.520;150.798;2024-02-26T07:20:37;100786.78;;;27.21;54.98
63395;BME280;49531;-34.520;150.798;2024-02-26T07:23:04;100790.97;;;27.19;54.99
63395;BME280;49531;-34.520;150.798;2024-02-26T07:25:33;100794.47;;;27.19;54.80
63395;BME280;49531;-34.520;150.798;2024-02-26T07:28:00;100768.69;;;27.07;55.06
63395;BME280;49531;-34.520;150.798;2024-02-26T07:30:27;100784.16;;;27.16;54.89
63395;BME280;49531;-34.520;150.798;2024-02-26T07:32:54;100800.59;;;27.16;54.79
63395;BME280;49531;-34.520;150.798;2024-02-26T07:35:21;100801.72;;;27.15;54.90
63395;BME280;49531;-34.520;150.798;2024-02-26T07:37:48;100803.94;;;27.13;54.82
63395;BME280;49531;-34.520;150.798;2024-02-26T07:40:16;100791.16;;;27.09;54.78
63395;BME280;49531;-34.520;150.798;2024-02-26T07:42:43;100802.31;;;27.12;54.79
63395;BME280;49531;-34.520;150.798;2024-02-26T07:45:11;100799.16;;;27.05;54.95
63395;BME280;49531;-34.520;150.798;2024-02-26T07:47:38;100802.72;;;27.06;54.90
63395;BME280;49531;-34.520;150.798;2024-02-26T07:50:08;100815.81;;;27.09;54.83
63395;BME280;49531;-34.520;150.798;2024-02-26T07:52:35;100813.38;;;27.07;54.91
63395;BME280;49531;-34.520;150.798;2024-02-26T07:55:02;100817.84;;;27.03;54.99
63395;BME280;49531;-34.520;150.798;2024-02-26T07:57:30;100821.50;;;26.99;55.02
63395;BME280;49531;-34.520;150.798;2024-02-26T07:59:57;100822.31;;;26.99;54.76
63395;BME280;49531;-34.520;150.798;2024-02-26T08:02:24;100820.16;;;26.96;54.91
63395;BME280;49531;-34.520;150.798;2024-02-26T08:04:51;100824.53;;;26.97;55.13
63395;BME280;49531;-34.520;150.798;2024-02-26T08:07:18;100836.59;;;26.96;55.03
63395;BME280;49531;-34.520;150.798;2024-02-26T08:09:46;100830.88;;;26.92;55.04
63395;BME280;49531;-34.520;150.798;2024-02-26T08:12:14;100844.28;;;26.94;54.90
63395;BME280;49531;-34.520;150.798;2024-02-26T08:14:41;100843.47;;;26.94;54.88
63395;BME280;49531;-34.520;150.798;2024-02-26T08:17:10;100837.78;;;26.90;54.92
63395;BME280;49531;-34.520;150.798;2024-02-26T08:19:37;100826.16;;;26.79;54.97
63395;BME280;49531;-34.520;150.798;2024-02-26T08:22:05;100838.38;;;26.87;54.93
63395;BME280;49531;-34.520;150.798;2024-02-26T08:24:32;100844.16;;;26.85;55.10
63395;BME280;49531;-34.520;150.798;2024-02-26T08:26:59;100861.63;;;26.89;55.03
63395;BME280;49531;-34.520;150.798;2024-02-26T08:29:26;100861.94;;;26.88;54.91
63395;BME280;49531;-34.520;150.798;2024-02-26T08:31:53;100868.53;;;26.87;54.99
63395;BME280;49531;-34.520;150.798;2024-02-26T08:34:20;100865.88;;;26.82;54.81
63395;BME280;49531;-34.520;150.798;2024-02-26T08:36:47;100869.72;;;26.81;54.95
63395;BME280;49531;-34.520;150.798;2024-02-26T08:39:15;100873.56;;;26.80;55.06
63395;BME280;49531;-34.520;150.798;2024-02-26T08:41:44;100873.28;;;26.81;54.86
63395;BME280;49531;-34.520;150.798;2024-02-26T08:44:11;100874.19;;;26.77;55.13
63395;BME280;49531;-34.520;150.798;2024-02-26T08:46:38;100893.91;;;26.79;55.13
63395;BME280;49531;-34.520;150.798;2024-02-26T08:49:05;100898.34;;;26.75;55.04
63395;BME280;49531;-34.520;150.798;2024-02-26T08:51:32;100904.06;;;26.78;55.07
63395;BME280;49531;-34.520;150.798;2024-02-26T08:54:00;100917.25;;;26.76;54.93
63395;BME280;49531;-34.520;150.798;2024-02-26T08:56:27;100914.78;;;26.75;55.20
63395;BME280;49531;-34.520;150.798;2024-02-26T08:58:54;100903.38;;;26.68;55.20
63395;BME280;49531;-34.520;150.798;2024-02-26T09:01:23;100925.25;;;26.73;55.13
63395;BME280;49531;-34.520;150.798;2024-02-26T09:03:50;100909.38;;;26.70;55.08
63395;BME280;49531;-34.520;150.798;2024-02-26T09:06:17;100927.47;;;26.71;55.13
63395;BME280;49531;-34.520;150.798;2024-02-26T09:08:44;100929.16;;;26.67;55.09
63395;BME280;49531;-34.520;150.798;2024-02-26T09:11:11;100945.31;;;26.68;55.04
63395;BME280;49531;-34.520;150.798;2024-02-26T09:13:38;100940.94;;;26.67;54.89
63395;BME280;49531;-34.520;150.798;2024-02-26T09:16:06;100939.91;;;26.63;55.04
63395;BME280;49531;-34.520;150.798;2024-02-26T09:18:33;100928.19;;;26.57;54.89
63395;BME280;49531;-34.520;150.798;2024-02-26T09:21:03;100943.75;;;26.62;55.12
63395;BME280;49531;-34.520;150.798;2024-02-26T09:23:31;100948.41;;;26.62;55.24
63395;BME280;49531;-34.520;150.798;2024-02-26T09:25:59;100956.13;;;26.60;55.21
63395;BME280;49531;-34.520;150.798;2024-02-26T09:28:26;100961.59;;;26.60;55.34
63395;BME280;49531;-34.520;150.798;2024-02-26T09:30:53;100956.19;;;26.54;55.26
63395;BME280;49531;-34.520;150.798;2024-02-26T09:33:20;100957.88;;;26.50;55.06
63395;BME280;49531;-34.520;150.798;2024-02-26T09:35:48;100980.25;;;26.57;55.86
63395;BME280;49531;-34.520;150.798;2024-02-26T09:38:15;100971.88;;;26.49;55.94
63395;BME280;49531;-34.520;150.798;2024-02-26T09:40:43;100973.72;;;26.53;55.75
63395;BME280;49531;-34.520;150.798;2024-02-26T09:43:14;100987.38;;;26.58;55.68
63395;BME280;49531;-34.520;150.798;2024-02-26T09:45:42;100989.59;;;26.56;55.87
63395;BME280;49531;-34.520;150.798;2024-02-26T09:48:11;100993.88;;;26.63;55.78
63395;BME280;49531;-34.520;150.798;2024-02-26T09:50:41;100981.88;;;26.58;55.64
63395;BME280;49531;-34.520;150.798;2024-02-26T09:53:10;100986.94;;;26.70;55.39
63395;BME280;49531;-34.520;150.798;2024-02-26T09:55:38;100986.41;;;26.68;55.53
63395;BME280;49531;-34.520;150.798;2024-02-26T09:58:06;101003.91;;;26.72;55.76
63395;BME280;49531;-34.520;150.798;2024-02-26T10:00:37;100994.88;;;26.72;55.86
63395;BME280;49531;-34.520;150.798;2024-02-26T10:03:06;101000.88;;;26.74;55.97
63395;BME280;49531;-34.520;150.798;2024-02-26T10:05:37;101003.00;;;26.77;55.74
63395;BME280;49531;-34.520;150.798;2024-02-26T10:08:06;100991.59;;;26.70;55.87
63395;BME280;49531;-34.520;150.798;2024-02-26T10:10:33;101004.03;;;26.81;55.94
63395;BME280;49531;-34.520;150.798;2024-02-26T10:13:00;101001.28;;;26.81;55.60
63395;BME280;49531;-34.520;150.798;2024-02-26T10:15:27;100994.78;;;26.77;55.76
63395;BME280;49531;-34.520;150.798;2024-02-26T10:17:55;101020.41;;;26.86;55.65
63395;BME280;49531;-34.520;150.798;2024-02-26T10:20:22;101025.06;;;26.85;55.48
63395;BME280;49531;-34.520;150.798;2024-02-26T10:22:52;101024.25;;;26.85;55.76
63395;BME280;49531;-34.520;150.798;2024-02-26T10:25:19;101027.28;;;26.83;55.59
63395;BME280;49531;-34.520;150.798;2024-02-26T10:27:47;101026.47;;;26.83;55.48
63395;BME280;49531;-34.520;150.798;2024-02-26T10:30:19;101036.44;;;26.79;55.74
63395;BME280;49531;-34.520;150.798;2024-02-26T10:32:48;101039.38;;;26.82;55.58
63395;BME280;49531;-34.520;150.798;2024-02-26T10:35:19;101040.19;;;26.83;55.78
63395;BME280;49531;-34.520;150.798;2024-02-26T10:37:50;101043.97;;;26.87;55.60
63395;BME280;49531;-34.520;150.798;2024-02-26T10:40:17;101045.13;;;26.81;55.58
63395;BME280;49531;-34.520;150.798;2024-02-26T10:42:45;101023.44;;;26.66;55.55
63395;BME280;49531;-34.520;150.798;2024-02-26T10:45:12;101038.66;;;26.77;55.60
63395;BME280;49531;-34.520;150.798;2024-02-26T10:47:41;101058.19;;;26.89;55.41
63395;BME280;49531;-34.520;150.798;2024-02-26T10:50:13;101053.59;;;26.84;55.65
63395;BME280;49531;-34.520;150.798;2024-02-26T10:52:44;101038.84;;;26.80;55.52
63395;BME280;49531;-34.520;150.798;2024-02-26T10:55:16;101048.09;;;26.84;55.64
63395;BME280;49531;-34.520;150.798;2024-02-26T10:57:47;101043.72;;;26.83;55.55
63395;BME280;49531;-34.520;150.798;2024-02-26T11:00:15;101029.31;;;26.78;55.50
63395;BME280;49531;-34.520;150.798;2024-02-26T11:02:45;101024.41;;;26.75;55.48
63395;BME280;49531;-34.520;150.798;2024-02-26T11:05:12;101027.69;;;26.77;55.40
63395;BME280;49531;-34.520;150.798;2024-02-26T11:07:41;101038.72;;;26.72;55.85
63395;BME280;49531;-34.520;150.798;2024-02-26T11:10:09;101040.94;;;26.70;55.79
63395;BME280;49531;-34.520;150.798;2024-02-26T11:12:39;101050.50;;;26.72;55.66
63395;BME280;49531;-34.520;150.798;2024-02-26T11:15:08;101054.63;;;26.70;55.66
63395;BME280;49531;-34.520;150.798;2024-02-26T11:17:37;101067.81;;;26.68;55.87
63395;BME280;49531;-34.520;150.798;2024-02-26T11:20:05;101060.16;;;26.65;55.58
63395;BME280;49531;-34.520;150.798;2024-02-26T11:22:36;101063.44;;;26.67;55.62
63395;BME280;49531;-34.520;150.798;2024-02-26T11:25:04;101067.06;;;26.62;55.71
63395;BME280;49531;-34.520;150.798;2024-02-26T11:27:45;101041.47;;;26.48;55.48
63395;BME280;49531;-34.520;150.798;2024-02-26T11:30:15;101057.56;;;26.54;55.47
63395;BME280;49531;-34.520;150.798;2024-02-26T11:32:47;101067.94;;;26.57;55.55
63395;BME280;49531;-34.520;150.798;2024-02-26T11:35:15;101070.44;;;26.54;55.60
63395;BME280;49531;-34.520;150.798;2024-02-26T11:37:55;101076.25;;;26.47;55.53
63395;BME280;49531;-34.520;150.798;2024-02-26T11:40:24;101081.75;;;26.47;55.47
63395;BME280;49531;-34.520;150.798;2024-02-26T11:42:52;101090.78;;;26.48;55.77
63395;BME280;49531;-34.520;150.798;2024-02-26T11:48:17;101073.06;;;26.40;55.56
63395;BME280;49531;-34.520;150.798;2024-02-26T11:50:53;101079.59;;;26.44;55.65
63395;BME280;49531;-34.520;150.798;2024-02-26T11:53:28;101093.00;;;26.46;55.42
63395;BME280;49531;-34.520;150.798;2024-02-26T11:59:00;101085.78;;;26.31;55.30
63395;BME280;49531;-34.520;150.798;2024-02-26T12:01:48;101096.69;;;26.36;55.49
63395;BME280;49531;-34.520;150.798;2024-02-26T12:04:27;101077.28;;;26.33;55.21
63395;BME280;49531;-34.520;150.798;2024-02-26T12:06:57;101090.09;;;26.37;55.38
63395;BME280;49531;-34.520;150.798;2024-02-26T12:09:37;101107.34;;;26.38;55.18
63395;BME280;49531;-34.520;150.798;2024-02-26T12:12:06;101109.78;;;26.39;55.02
63395;BME280;49531;-34.520;150.798;2024-02-26T12:14:35;101096.69;;;26.36;55.28
63395;BME280;49531;-34.520;150.798;2024-02-26T12:17:04;101083.28;;;26.35;55.18
63395;BME280;49531;-34.520;150.798;2024-02-26T12:19:37;101061.44;;;26.24;55.40
63395;BME280;49531;-34.520;150.798;2024-02-26T12:22:07;101068.78;;;26.29;55.32
63395;BME280;49531;-34.520;150.798;2024-02-26T12:24:35;101081.66;;;26.34;54.84
63395;BME280;49531;-34.520;150.798;2024-02-26T12:27:02;101077.00;;;26.29;54.99
63395;BME280;49531;-34.520;150.798;2024-02-26T12:29:29;101084.13;;;26.30;54.87
63395;BME280;49531;-34.520;150.798;2024-02-26T12:31:57;101079.22;;;26.27;54.86
63395;BME280;49531;-34.520;150.798;2024-02-26T12:34:24;101082.81;;;26.22;54.89
63395;BME280;49531;-34.520;150.798;2024-02-26T12:36:54;101081.16;;;26.27;54.99
63395;BME280;49531;-34.520;150.798;2024-02-26T12:39:21;101074.84;;;26.26;54.72
63395;BME280;49531;-34.520;150.798;2024-02-26T14:40:10;101054.06;;;25.67;54.70
63395;BME280;49531;-34.520;150.798;2024-02-26T14:42:37;101043.69;;;25.64;54.78
63395;BME280;49531;-34.520;150.798;2024-02-26T16:43:24;100926.97;;;25.25;55.14
63395;BME280;49531;-34.520;150.798;2024-02-26T16:45:52;100927.25;;;25.24;55.33
63395;BME280;49531;-34.520;150.798;2024-02-26T16:48:19;100924.50;;;25.24;54.99